Impacts TAF Board
For situational awareness. Not to be used for flight planning purposes.
IDs:

KIAH - Houston/Bush Intl, TX, US

Issued at 0959 UTC 18 Oct 2018
Updated at 1019 UTC 18 Oct 2018
Potential Impact None Slight Moderate High
Time0953Z 18/11Z 18/12Z 18/13Z 18/14Z 18/15Z 18/16Z 18/17Z 18/18Z 18/19Z 18/20Z 18/21Z 18/22Z 18/23Z>>
Type OBS PRVL PRVL PRVL PRVL PRVL PRVL PRVL PRVL PRVL PRVL PRVL PRVL PRVL
VIS 3 >6 3 3 >6 >6 >6 >6 >6 >6 >6 >6 >6 >6
CIG 13 16 10 10 10 10 10 10 10 15 15 15 15 15
Cover OVC OVC OVC OVC OVC OVC OVC OVC OVC OVC OVC OVC OVC OVC
FltCat MVFR MVFR MVFR MVFR MVFR MVFR MVFR MVFR MVFR MVFR MVFR MVFR MVFR MVFR
WX +RA BR VCSH BR BR -- -- -- -- -- -- -- -- -- --
WDir 30 30 20 20 30 30 30 30 30 40 40 40 40 40
WSpd 10 10 10 10 12 12 12 12 12 12 12 12 12 12
WGst -- -- -- -- -- -- -- -- -- -- -- -- -- --
Raw TAF
KIAH 180959Z 1810/1912 03010KT P6SM VCSH OVC016
  TEMPO 1810/1811 3SM RA BR SCT006 OVC013
  FM181200 02010KT 3SM BR SCT006 OVC010
  FM181400 03012KT P6SM OVC010
  FM181900 04012KT P6SM OVC015
  FM190400 03009KT P6SM OVC025


Raw METAR
KIAH 180953Z 03010KT 3SM +RA BR SCT006 OVC013 13/13 A3023 RMK AO2 SLP235 P0082 T01330133
KIAH 180943Z 03008KT 1SM +RA BR SCT008 OVC013 13/13 A3023 RMK AO2 P0064 T01330133
KIAH 180925Z 05007KT 1/2SM +RA FG SCT008 OVC015 13/13 A3023 RMK AO2 P0021 T01330133
KIAH 180910Z 03007KT 1 1/2SM +RA BR OVC016 13/13 A3023 RMK AO2 P0001 T01330133
KIAH 180853Z 04008KT 3SM -RA BR OVC016 14/13 A3023 RMK AO2 RAB06 SLP237 VIS S-W 2 P0002 60002 T01390133 56009
KIAH 180753Z 04010KT 10SM OVC017 16/12 A3023 RMK AO2 RAB35E47 SLP237 P0000 T01560122

METAR Board
Radar Display
Forecast Discussion
For situational awareness. Not to be used for flight planning purposes.